1923 NOT_NAMED (1923233N19119)


IBTrACS version v04r00. Visit IBTrACS website for data access.
Please direct all questions to the IBTrACS Q and A forum

Storm track - Intensity - Wind Radii - Intensity Data - Source Data - All data

Summary Information

Storm ID 1923233N19119
Start Aug 20 22Z
Landfall Aug 23 12Z
End Aug 23 22Z
ATCF IDs
Track status Best track data.

Storm track plot

Map of storm track

Intensity plots

No Intensity information for this storm


Radial wind information

No radial wind information for this storm


Position and Intensity Table

BASIN ISO_TIME_________ NATURE LAT LON
degrees north degrees east
WP 1923-08-20 22:00:00 NR 18.60 118.60
WP 1923-08-21 00:00:00 NR 18.72 118.36
WP 03:00:00 NR 18.89 117.98
WP 06:00:00 NR 19.07 117.59
WP 09:00:00 NR 19.24 117.15
WP 10:00:00 NR 19.30 117.00
WP 12:00:00 NR 19.42 116.68
WP 15:00:00 NR 19.59 116.17
WP 18:00:00 NR 19.74 115.68
WP 21:00:00 NR 19.86 115.23
WP 22:00:00 NR 19.90 115.10
WP 1923-08-22 00:00:00 NR 19.96 114.88
WP 03:00:00 NR 20.02 114.60
WP 06:00:00 NR 20.06 114.37
WP 09:00:00 NR 20.09 114.17
WP 10:00:00 NR 20.10 114.10
WP 12:00:00 NR 20.12 114.00
WP 15:00:00 NR 20.14 113.88
WP 18:00:00 NR 20.16 113.71
WP 21:00:00 NR 20.19 113.43
WP 22:00:00 NR 20.20 113.30
WP 1923-08-23 00:00:00 NR 20.24 112.94
WP 03:00:00 NR 20.30 112.29
WP 06:00:00 NR 20.35 111.56
WP 09:00:00 NR 20.39 110.83
WP 10:00:00 NR 20.40 110.60
WP 12:00:00 NR 20.40 110.18
WP 15:00:00 NR 20.39 109.61
WP 18:00:00 NR 20.36 109.11
WP 21:00:00 NR 20.32 108.65
WP 22:00:00 NR 20.30 108.50

Source Information

Agency Information
USA
TOKYO
CMA
HKO
NEWDELHI
REUNION
BOM
NADI
WELLINGTON
DS824
TD9636 cons_worldwide_trop_cyclone_18710101-19891231-003:Line=7012
TD9635
NEUMANN
MLC

All available IBTrACS Data

SEASON BASIN SUBBASIN ISO_TIME_________ NATURE LAT LON DIST2LAND LANDFALL IFLAG USA SSHS TD9636 LAT TD9636 LON TD9636 STAGE STORM SPEED STORM DIR
Year degrees north degrees east km km 1 degrees north degrees east kts degrees
1923 WP MM 1923-08-20 22:00:00 NR 18.60 118.60 208 208 __________O___ -1 18.60 118.60 2 8 297
1923 WP MM 1923-08-21 00:00:00 NR 18.72 118.36 231 241 __________P___ -1 18.72 118.36 2 8 296
1923 WP MM 03:00:00 NR 18.89 117.98 278 278 __________P___ -1 18.89 117.98 2 8 296
1923 WP MM 06:00:00 NR 19.07 117.59 325 325 __________P___ -1 19.07 117.59 2 9 294
1923 WP MM 09:00:00 NR 19.24 117.15 368 381 __________P___ -1 19.24 117.15 2 9 293
1923 WP MM 10:00:00 NR 19.30 117.00 391 380 __________O___ -1 19.30 117.00 2 10 291
1923 WP MM 12:00:00 NR 19.42 116.68 380 349 __________P___ -1 19.42 116.68 2 10 290
1923 WP MM 15:00:00 NR 19.59 116.17 349 323 __________P___ -1 19.59 116.17 2 10 289
1923 WP MM 18:00:00 NR 19.74 115.68 323 284 __________P___ -1 19.74 115.68 2 9 288
1923 WP MM 21:00:00 NR 19.86 115.23 284 280 __________P___ -1 19.86 115.23 2 9 287
1923 WP MM 22:00:00 NR 19.90 115.10 280 264 __________O___ -1 19.90 115.10 2 7 286
1923 WP MM 1923-08-22 00:00:00 NR 19.96 114.88 264 259 __________P___ -1 19.96 114.88 2 6 284
1923 WP MM 03:00:00 NR 20.02 114.60 259 246 __________P___ -1 20.02 114.60 2 5 282
1923 WP MM 06:00:00 NR 20.06 114.37 246 236 __________P___ -1 20.06 114.37 2 4 280
1923 WP MM 09:00:00 NR 20.09 114.17 236 231 __________P___ -1 20.09 114.17 2 4 278
1923 WP MM 10:00:00 NR 20.10 114.10 231 226 __________O___ -1 20.10 114.10 2 3 280
1923 WP MM 12:00:00 NR 20.12 114.00 226 221 __________P___ -1 20.12 114.00 2 3 281
1923 WP MM 15:00:00 NR 20.14 113.88 221 203 __________P___ -1 20.14 113.88 2 3 279
1923 WP MM 18:00:00 NR 20.16 113.71 203 194 __________P___ -1 20.16 113.71 2 4 276
1923 WP MM 21:00:00 NR 20.19 113.43 194 192 __________P___ -1 20.19 113.43 2 6 276
1923 WP MM 22:00:00 NR 20.20 113.30 192 178 __________O___ -1 20.20 113.30 2 9 276
1923 WP MM 1923-08-23 00:00:00 NR 20.24 112.94 178 152 __________P___ -1 20.24 112.94 2 11 276
1923 WP MM 03:00:00 NR 20.30 112.29 152 85 __________P___ -1 20.30 112.29 2 13 275
1923 WP MM 06:00:00 NR 20.35 111.56 92 33 __________P___ -1 20.35 111.56 2 14 274
1923 WP MM 09:00:00 NR 20.39 110.83 33 15 __________P___ -1 20.39 110.83 2 13 273
1923 WP MM 10:00:00 NR 20.40 110.60 15 0 __________O___ -1 20.40 110.60 2 12 271
1923 WP MM 12:00:00 NR 20.40 110.18 0 0 __________P___ -1 20.40 110.18 2 11 269
1923 WP MM 15:00:00 NR 20.39 109.61 23 23 __________P___ -1 20.39 109.61 2 10 267
1923 WP MM 18:00:00 NR 20.36 109.11 69 64 __________P___ -1 20.36 109.11 2 9 265
1923 WP MM 21:00:00 NR 20.32 108.65 83 91 __________P___ -1 20.32 108.65 2 9 264
1923 WP MM 22:00:00 NR 20.30 108.50 98 __________O___ -1 20.30 108.50 7 9 264